Terminal Aerodrome Forecast
Issued by NWS

Home | Current Version | Previous Version | Text Only | Print | Product List | Glossary On
Versions: 1 2 3 4 5 6 7 8 9 10 11 12 13 14 15 16 17 18 19 20 21 22 23 24 25 26 27 28 29 30 31 32 33 34 35 36 37 38 39 40 41 42 43
000
FTUS44 KCRP 191721
TAFALI
TAF
KALI 191721Z 1918/2018 18010KT P6SM SKC
     FM192100 14012KT P6SM SCT040
     FM200600 16010KT P6SM SCT030 BKN250
     FM201500 18015KT P6SM BKN050=

USA.gov is the U.S. government's official web portal to all federal, state and local government web resources and services.